Time;durP1;ratioP1;P1;durP2;ratioP2;P2;SDS_P1;SDS_P2;PMS_P1;PMS_P2;Temp;Humidity;BMP_temperature;BMP_pressure;BME280_temperature;BME280_humidity;BME280_pressure;Samples;Min_cycle;Max_cycle;Signal;HPM_P1;HPM_P2
2021/05/17 00:02:21;;;;;;;1.73;0.43;;;11.70;99.90;;;;;;5054523;28;20115;-64
2021/05/17 00:04:48;;;;;;;1.63;0.57;;;11.60;99.90;;;;;;5054838;28;20393;-64
2021/05/17 00:07:15;;;;;;;0.70;0.47;;;11.50;99.90;;;;;;5054757;28;20493;-64
2021/05/17 00:09:41;;;;;;;1.63;0.50;;;11.50;99.90;;;;;;5054763;28;20068;-64
2021/05/17 00:12:09;;;;;;;1.00;0.55;;;11.50;99.90;;;;;;5053609;28;20037;-63
2021/05/17 00:14:39;;;;;;;4.72;1.08;;;11.50;99.90;;;;;;5054288;28;20436;-64
2021/05/17 00:17:06;;;;;;;0.90;0.50;;;11.50;99.90;;;;;;5053898;28;20033;-64
2021/05/17 00:19:32;;;;;;;4.53;1.08;;;11.40;99.90;;;;;;5054059;28;20045;-63
2021/05/17 00:21:59;;;;;;;0.73;0.40;;;11.40;99.90;;;;;;5054514;28;20041;-64
2021/05/17 00:24:25;;;;;;;0.90;0.30;;;11.40;99.90;;;;;;5054315;28;20112;-64
2021/05/17 00:26:51;;;;;;;2.22;0.98;;;11.30;99.90;;;;;;5054538;28;20496;-64
2021/05/17 00:29:17;;;;;;;0.98;0.45;;;11.30;99.90;;;;;;5054201;28;20076;-64
2021/05/17 00:31:44;;;;;;;0.50;0.40;;;11.30;99.90;;;;;;5054485;28;20053;-64
2021/05/17 00:34:11;;;;;;;1.95;0.50;;;11.20;99.90;;;;;;5053886;28;20393;-64
2021/05/17 00:36:37;;;;;;;0.65;0.43;;;11.30;99.90;;;;;;5054272;28;20485;-64
2021/05/17 00:39:09;;;;;;;0.98;0.40;;;11.20;99.90;;;;;;5053033;28;20037;-64
2021/05/17 00:41:36;;;;;;;0.80;0.40;;;11.20;99.90;;;;;;5053885;28;20074;-64
2021/05/17 00:44:03;;;;;;;2.15;0.30;;;11.20;99.90;;;;;;5054205;28;20536;-64
2021/05/17 00:46:31;;;;;;;3.20;0.40;;;11.20;99.90;;;;;;5053918;28;20037;-65
2021/05/17 00:48:58;;;;;;;1.23;0.68;;;11.30;99.90;;;;;;5054071;28;20174;-64
2021/05/17 00:51:25;;;;;;;1.98;0.70;;;11.30;99.90;;;;;;5053987;28;20021;-65
2021/05/17 00:53:51;;;;;;;1.05;0.60;;;11.30;99.90;;;;;;5053953;28;20031;-64
2021/05/17 00:56:18;;;;;;;1.38;0.50;;;11.30;99.90;;;;;;5053715;28;20075;-65
2021/05/17 00:58:44;;;;;;;1.42;0.50;;;11.30;99.90;;;;;;5053642;28;20071;-64
2021/05/17 01:01:09;;;;;;;0.52;0.50;;;11.30;99.90;;;;;;5053766;28;20090;-64
2021/05/17 01:03:36;;;;;;;0.70;0.50;;;11.30;99.90;;;;;;5053469;28;20477;-64
2021/05/17 01:06:04;;;;;;;1.33;0.60;;;11.50;99.90;;;;;;5052566;28;20033;-64
2021/05/17 01:08:47;;;;;;;1.27;0.70;;;11.50;99.90;;;;;;5053705;28;20389;-63
2021/05/17 01:11:16;;;;;;;3.20;0.75;;;11.50;99.90;;;;;;5052484;28;20033;-64
2021/05/17 01:13:44;;;;;;;5.75;0.90;;;11.50;99.90;;;;;;5052462;28;20112;-64
2021/05/17 01:16:11;;;;;;;3.38;0.75;;;11.40;99.90;;;;;;5053061;28;20041;-64
2021/05/17 01:18:39;;;;;;;4.93;1.08;;;11.50;99.90;;;;;;5053202;28;20056;-62
2021/05/17 01:21:06;;;;;;;5.15;0.93;;;11.50;99.90;;;;;;5051979;28;20114;-63
2021/05/17 01:23:44;;;;;;;1.75;0.77;;;11.60;99.90;;;;;;5053106;28;20032;-63
2021/05/17 01:26:12;;;;;;;3.30;0.85;;;11.50;99.90;;;;;;5051844;28;20040;-63
2021/05/17 01:28:40;;;;;;;3.90;0.90;;;11.50;99.90;;;;;;5052142;28;20037;-63
2021/05/17 01:31:08;;;;;;;3.70;1.00;;;11.50;99.90;;;;;;5053178;28;20550;-63
2021/05/17 01:33:40;;;;;;;3.47;1.10;;;11.50;99.90;;;;;;5053255;28;20074;-63
2021/05/17 01:36:10;;;;;;;3.67;1.17;;;11.50;99.90;;;;;;5053209;28;20028;-63
2021/05/17 01:38:41;;;;;;;3.70;0.77;;;11.50;99.90;;;;;;5053216;28;20050;-63
2021/05/17 01:41:13;;;;;;;4.10;0.95;;;11.40;99.90;;;;;;5052824;28;20116;-63
2021/05/17 01:43:45;;;;;;;2.03;0.80;;;11.40;99.90;;;;;;5051469;28;20493;-63
2021/05/17 01:46:23;;;;;;;3.20;0.90;;;11.30;99.90;;;;;;5052881;28;20025;-63
2021/05/17 01:48:49;;;;;;;2.65;0.80;;;11.30;99.90;;;;;;5052736;28;20044;-64
2021/05/17 01:51:20;;;;;;;1.80;0.65;;;11.30;99.90;;;;;;5052698;28;20029;-63
2021/05/17 01:53:48;;;;;;;1.52;1.20;;;11.40;99.90;;;;;;5052821;28;20067;-63
2021/05/17 01:56:16;;;;;;;3.58;0.90;;;11.50;99.90;;;;;;5052450;28;20036;-64
2021/05/17 01:58:43;;;;;;;2.35;0.77;;;11.40;99.90;;;;;;5052587;28;20563;-63
2021/05/17 02:01:15;;;;;;;2.13;0.80;;;11.40;99.90;;;;;;5052608;28;20048;-64
2021/05/17 02:03:47;;;;;;;3.30;0.73;;;11.40;99.90;;;;;;5052671;28;20549;-64
2021/05/17 02:06:15;;;;;;;6.22;1.02;;;11.50;99.90;;;;;;5051170;28;20072;-64
2021/05/17 02:08:45;;;;;;;1.90;1.00;;;11.50;99.90;;;;;;5052626;28;20119;-64
2021/05/17 02:11:15;;;;;;;3.22;0.93;;;11.50;99.90;;;;;;5052619;28;20033;-63
2021/05/17 02:13:41;;;;;;;5.03;1.00;;;11.50;99.90;;;;;;5052423;28;20493;-63
2021/05/17 02:16:14;;;;;;;4.05;1.13;;;11.40;99.90;;;;;;5052401;28;20037;-64
2021/05/17 02:18:42;;;;;;;5.10;1.05;;;11.50;99.90;;;;;;5050818;28;20033;-64
2021/05/17 02:21:11;;;;;;;6.68;1.58;;;11.50;99.90;;;;;;5050869;28;20033;-64
2021/05/17 02:23:37;;;;;;;2.42;0.65;;;11.50;99.90;;;;;;5051996;28;20539;-63
2021/05/17 02:26:04;;;;;;;4.07;0.75;;;11.50;99.90;;;;;;5052122;28;20041;-64
2021/05/17 02:28:30;;;;;;;5.00;0.82;;;11.40;99.90;;;;;;5051080;28;20048;-64
2021/05/17 02:30:57;;;;;;;4.95;0.93;;;11.50;99.90;;;;;;5052334;28;20037;-64
2021/05/17 02:33:23;;;;;;;4.15;1.20;;;11.50;99.90;;;;;;5052240;28;20052;-64
2021/05/17 02:35:50;;;;;;;3.20;1.33;;;11.60;99.90;;;;;;5052247;28;20037;-64
2021/05/17 02:38:16;;;;;;;3.28;0.88;;;11.70;99.90;;;;;;5052089;28;20033;-64
2021/05/17 02:40:42;;;;;;;4.85;1.10;;;11.60;99.90;;;;;;5051670;28;20094;-64
2021/05/17 02:43:12;;;;;;;2.92;0.77;;;11.60;99.90;;;;;;5052065;28;20039;-64
2021/05/17 02:45:39;;;;;;;3.30;1.20;;;11.60;99.90;;;;;;5051913;28;20111;-64
2021/05/17 02:48:08;;;;;;;3.67;1.15;;;11.60;99.90;;;;;;5052291;28;20025;-64
2021/05/17 02:50:38;;;;;;;2.30;0.88;;;11.60;99.90;;;;;;5051697;28;20037;-64
2021/05/17 02:53:25;;;;;;;2.70;0.90;;;11.50;99.90;;;;;;5052156;28;20025;-63
2021/05/17 02:55:55;;;;;;;1.80;0.80;;;11.50;99.90;;;;;;5052000;28;20136;-63
2021/05/17 02:58:23;;;;;;;3.75;0.80;;;11.50;99.90;;;;;;5052053;28;20392;-63
2021/05/17 03:00:59;;;;;;;2.03;0.82;;;11.50;99.90;;;;;;5052038;28;20033;-64
2021/05/17 03:03:26;;;;;;;6.55;0.93;;;11.50;99.90;;;;;;5051018;28;20025;-63
2021/05/17 03:06:03;;;;;;;7.47;1.02;;;11.50;99.90;;;;;;5033992;28;20564;-65
2021/05/17 03:08:56;;;;;;;3.08;0.70;;;11.40;99.90;;;;;;5050554;28;20068;-65
2021/05/17 03:11:23;;;;;;;3.97;0.70;;;11.40;99.90;;;;;;5051817;28;20435;-65
2021/05/17 03:13:52;;;;;;;3.20;0.88;;;11.40;99.90;;;;;;5051894;28;20474;-65
2021/05/17 03:16:24;;;;;;;3.78;0.80;;;11.30;99.90;;;;;;5051775;28;20037;-65
2021/05/17 03:18:53;;;;;;;1.50;0.50;;;11.40;99.90;;;;;;5051405;28;20047;-65
2021/05/17 03:21:24;;;;;;;2.80;1.02;;;11.30;99.90;;;;;;5051789;28;20036;-64
2021/05/17 03:23:53;;;;;;;3.35;0.80;;;11.40;99.90;;;;;;5051996;28;20024;-64
2021/05/17 03:26:21;;;;;;;1.25;0.60;;;11.40;99.90;;;;;;5050799;28;20128;-64
2021/05/17 03:28:48;;;;;;;2.80;0.90;;;11.40;99.90;;;;;;5050682;28;20064;-65
2021/05/17 03:31:14;;;;;;;1.77;0.75;;;11.40;99.90;;;;;;5051466;28;20033;-65
2021/05/17 03:33:40;;;;;;;4.22;0.80;;;11.40;99.90;;;;;;5050372;28;20199;-65
2021/05/17 03:36:06;;;;;;;8.05;0.77;;;11.40;99.90;;;;;;5051506;28;20134;-65
2021/05/17 03:38:33;;;;;;;2.22;0.80;;;11.30;99.90;;;;;;5051770;28;20021;-64
2021/05/17 03:40:59;;;;;;;5.72;0.90;;;11.30;99.90;;;;;;5051391;28;20029;-65
2021/05/17 03:43:25;;;;;;;2.15;0.70;;;11.30;99.90;;;;;;5051514;28;20476;-65
2021/05/17 03:45:51;;;;;;;2.03;0.70;;;11.20;99.90;;;;;;5051667;28;20108;-65
2021/05/17 03:48:17;;;;;;;3.05;0.75;;;11.20;99.90;;;;;;5051334;28;20059;-64
2021/05/17 03:50:43;;;;;;;2.40;0.68;;;11.20;99.90;;;;;;5016591;28;20041;-65
2021/05/17 03:53:09;;;;;;;4.43;0.90;;;11.20;99.90;;;;;;5055174;28;20036;-65
2021/05/17 03:55:35;;;;;;;3.35;0.73;;;11.20;99.90;;;;;;5055002;28;20033;-65
2021/05/17 03:58:01;;;;;;;5.53;1.13;;;11.20;99.90;;;;;;5055120;28;20111;-64
2021/05/17 04:00:28;;;;;;;3.90;0.68;;;11.10;99.90;;;;;;5054730;28;20032;-65
2021/05/17 04:02:55;;;;;;;3.10;1.10;;;11.20;99.90;;;;;;5054630;28;20505;-64
2021/05/17 04:13:32;;;;;;;4.45;0.68;;;11.30;99.90;;;;;;5054433;28;20033;-64
2021/05/17 04:15:57;;;;;;;2.13;0.75;;;11.10;99.90;;;;;;5054780;28;20031;-64
2021/05/17 04:18:23;;;;;;;5.25;0.80;;;11.00;99.90;;;;;;5054294;28;20049;-63
2021/05/17 04:20:51;;;;;;;2.00;0.60;;;11.00;99.90;;;;;;5054646;28;20052;-64
2021/05/17 04:23:24;;;;;;;2.35;0.60;;;11.10;99.90;;;;;;5054261;28;20116;-64
2021/05/17 04:25:50;;;;;;;1.85;0.65;;;11.20;99.90;;;;;;5054271;28;20367;-64
2021/05/17 04:28:17;;;;;;;2.13;0.77;;;11.10;99.90;;;;;;5054458;28;20029;-64
2021/05/17 04:30:43;;;;;;;4.97;0.70;;;11.20;99.90;;;;;;5054113;28;20032;-64
2021/05/17 04:33:09;;;;;;;1.23;0.60;;;11.20;99.90;;;;;;5054364;28;20121;-64
2021/05/17 04:35:35;;;;;;;0.80;0.50;;;11.10;99.90;;;;;;5054299;28;20117;-64
2021/05/17 04:38:01;;;;;;;1.05;0.38;;;11.20;99.90;;;;;;5054111;28;20082;-64
2021/05/17 04:40:27;;;;;;;0.93;0.20;;;11.10;99.90;;;;;;5054014;28;20036;-63
2021/05/17 04:42:53;;;;;;;2.05;0.85;;;11.20;99.90;;;;;;5053858;28;20043;-64
2021/05/17 04:45:20;;;;;;;4.43;0.63;;;11.20;99.90;;;;;;5053964;28;20260;-64
2021/05/17 04:47:46;;;;;;;1.27;0.50;;;11.10;99.90;;;;;;5053889;28;20037;-63
2021/05/17 04:50:12;;;;;;;2.35;0.60;;;11.20;99.90;;;;;;5054142;28;20079;-64
2021/05/17 04:52:38;;;;;;;2.53;0.35;;;11.20;99.90;;;;;;5053686;28;20036;-64
2021/05/17 04:55:05;;;;;;;3.25;0.50;;;11.10;99.90;;;;;;5053711;28;20040;-64
2021/05/17 04:57:31;;;;;;;2.28;0.57;;;11.10;99.90;;;;;;5053816;28;20033;-64
2021/05/17 04:59:56;;;;;;;4.88;0.77;;;11.10;99.90;;;;;;5054019;28;20033;-64
2021/05/17 05:02:22;;;;;;;2.60;0.63;;;11.10;99.90;;;;;;5052274;28;20039;-64
2021/05/17 05:04:48;;;;;;;3.03;0.73;;;11.10;99.90;;;;;;5053464;28;20039;-64
2021/05/17 05:07:14;;;;;;;1.25;0.60;;;11.10;99.90;;;;;;5053551;28;20147;-64
2021/05/17 05:09:40;;;;;;;1.50;0.63;;;11.20;99.90;;;;;;5053169;28;20036;-64
2021/05/17 05:12:06;;;;;;;2.55;0.85;;;11.30;99.90;;;;;;5053370;28;20032;-64
2021/05/17 05:14:32;;;;;;;1.13;0.70;;;11.30;99.90;;;;;;5053381;28;20104;-64
2021/05/17 05:16:58;;;;;;;4.45;1.15;;;11.30;99.90;;;;;;5053027;28;20397;-67
2021/05/17 05:19:24;;;;;;;1.42;0.63;;;11.30;99.90;;;;;;5052822;28;20167;-66
2021/05/17 05:21:50;;;;;;;6.75;0.82;;;11.30;99.90;;;;;;5053430;28;20032;-66
2021/05/17 05:24:16;;;;;;;3.42;0.60;;;11.40;99.90;;;;;;5051794;28;20436;-67
2021/05/17 05:31:58;;;;;;;5.68;1.02;;;11.30;99.90;;;;;;5053030;28;20430;-66
2021/05/17 05:34:25;;;;;;;3.17;0.65;;;11.40;99.90;;;;;;5066504;28;20027;-67
2021/05/17 05:36:51;;;;;;;3.70;0.57;;;11.40;99.90;;;;;;5055446;28;20119;-67
2021/05/17 05:39:17;;;;;;;1.80;0.70;;;11.40;99.90;;;;;;5071518;28;20116;-64
2021/05/17 05:41:43;;;;;;;1.10;0.60;;;11.50;99.90;;;;;;5072626;28;20033;-66
2021/05/17 05:44:09;;;;;;;5.40;0.90;;;11.50;99.90;;;;;;5087076;28;20086;-65
2021/05/17 05:46:35;;;;;;;2.47;0.80;;;11.60;99.90;;;;;;5093052;28;20089;-67
2021/05/17 05:49:01;;;;;;;2.45;0.65;;;11.60;99.90;;;;;;5092793;28;20099;-65
2021/05/17 05:51:29;;;;;;;2.00;0.60;;;11.70;99.90;;;;;;5092874;28;20115;-64
2021/05/17 05:53:57;;;;;;;1.60;0.60;;;11.80;99.90;;;;;;5092956;28;20028;-65
2021/05/17 05:56:23;;;;;;;5.60;1.35;;;11.80;99.90;;;;;;5075056;28;20036;-66
2021/05/17 05:58:49;;;;;;;7.53;1.35;;;11.70;99.90;;;;;;5092863;28;20032;-67
2021/05/17 06:01:16;;;;;;;1.25;0.60;;;11.80;99.90;;;;;;5092737;28;20043;-66
2021/05/17 06:03:42;;;;;;;3.30;1.13;;;11.80;99.90;;;;;;5092673;28;20020;-66
2021/05/17 06:06:10;;;;;;;4.22;1.88;;;11.80;99.90;;;;;;5073067;28;20036;-65
2021/05/17 06:08:40;;;;;;;5.97;1.70;;;11.90;99.90;;;;;;5072594;28;20123;-67
2021/05/17 06:11:08;;;;;;;3.15;0.77;;;11.90;99.90;;;;;;5072359;28;20043;-67
2021/05/17 06:13:35;;;;;;;1.83;0.55;;;11.90;99.90;;;;;;5071889;28;20473;-67
2021/05/17 06:16:09;;;;;;;5.18;0.80;;;11.90;99.90;;;;;;5070828;28;20047;-66
2021/05/17 06:18:36;;;;;;;1.92;0.50;;;12.00;99.90;;;;;;5070853;28;20413;-67
2021/05/17 06:21:03;;;;;;;1.83;0.70;;;11.90;99.90;;;;;;5070881;28;20059;-67
2021/05/17 06:23:30;;;;;;;3.08;0.60;;;11.90;99.90;;;;;;5072283;28;20121;-69
2021/05/17 06:25:57;;;;;;;1.90;0.63;;;11.90;99.90;;;;;;5071964;28;20029;-66
2021/05/17 06:28:27;;;;;;;3.03;0.82;;;11.90;99.90;;;;;;5072569;28;20024;-65
2021/05/17 06:30:57;;;;;;;1.85;0.73;;;11.90;99.90;;;;;;5072213;28;20041;-66
2021/05/17 06:33:23;;;;;;;1.67;0.95;;;11.90;99.90;;;;;;5072200;28;20032;-67
2021/05/17 06:35:53;;;;;;;5.28;1.27;;;12.00;99.90;;;;;;5089107;28;20032;-69
2021/05/17 06:38:20;;;;;;;1.57;0.67;;;12.00;99.90;;;;;;5090113;28;20024;-68
2021/05/17 06:40:46;;;;;;;4.18;0.60;;;12.00;99.90;;;;;;5075056;28;20513;-67
2021/05/17 06:43:13;;;;;;;1.70;0.80;;;12.10;99.90;;;;;;5066102;28;20051;-67
2021/05/17 06:45:40;;;;;;;6.30;1.02;;;12.10;99.90;;;;;;5071992;28;20392;-65
2021/05/17 06:48:07;;;;;;;1.40;0.70;;;12.20;99.90;;;;;;5072349;28;20028;-66
2021/05/17 06:50:34;;;;;;;2.05;0.82;;;12.30;99.90;;;;;;5071828;28;20040;-67
2021/05/17 06:53:00;;;;;;;4.32;0.60;;;12.40;99.90;;;;;;5072249;28;20051;-67
2021/05/17 06:55:59;;;;;;;1.73;0.73;;;12.40;99.90;;;;;;5072139;28;20052;-67
2021/05/17 06:58:27;;;;;;;2.40;0.60;;;12.40;99.90;;;;;;5071683;28;20109;-67
2021/05/17 07:00:54;;;;;;;1.38;0.50;;;12.40;99.90;;;;;;5071640;28;20393;-68
2021/05/17 07:03:22;;;;;;;1.38;0.55;;;12.40;99.90;;;;;;5072290;28;20119;-67
2021/05/17 07:05:49;;;;;;;5.25;1.00;;;12.40;99.90;;;;;;5089055;28;20364;-68
2021/05/17 07:13:45;;;;;;;2.92;0.60;;;12.50;99.90;;;;;;5091876;28;20035;-67
2021/05/17 07:16:10;;;;;;;4.30;0.88;;;12.60;99.90;;;;;;5091693;28;20040;-67
2021/05/17 07:18:36;;;;;;;1.42;0.57;;;12.80;99.90;;;;;;5090762;28;20048;-67
2021/05/17 07:23:39;;;;;;;2.15;0.80;;;12.90;99.90;;;;;;5092270;28;20020;-67
2021/05/17 07:26:10;;;;;;;1.38;0.52;;;12.90;99.90;;;;;;5094737;28;20067;-67
2021/05/17 07:28:36;;;;;;;2.45;0.60;;;12.90;99.90;;;;;;5096031;28;20082;-66
2021/05/17 07:31:05;;;;;;;3.53;0.70;;;12.90;99.90;;;;;;5095540;28;20149;-66
2021/05/17 07:33:32;;;;;;;2.22;0.50;;;13.00;99.90;;;;;;5095626;28;20536;-54
2021/05/17 07:35:59;;;;;;;1.90;0.70;;;13.00;99.90;;;;;;5076666;28;20070;-59
2021/05/17 07:38:31;;;;;;;4.05;0.70;;;13.10;99.90;;;;;;5074348;28;20035;-58
2021/05/17 07:41:00;;;;;;;3.20;0.60;;;13.10;99.90;;;;;;5076421;28;20024;-58
2021/05/17 07:43:27;;;;;;;4.30;0.77;;;13.10;99.90;;;;;;5054955;28;20025;-64
2021/05/17 07:45:54;;;;;;;5.18;0.77;;;13.00;99.90;;;;;;5063835;28;20029;-67
2021/05/17 07:48:20;;;;;;;3.55;0.50;;;13.00;99.90;;;;;;5060310;28;20033;-66
2021/05/17 07:50:47;;;;;;;3.95;0.93;;;13.00;99.90;;;;;;5055026;28;20029;-66
2021/05/17 07:53:14;;;;;;;3.30;0.70;;;12.90;99.90;;;;;;5055223;28;20040;-65
2021/05/17 07:55:41;;;;;;;4.78;0.77;;;12.80;99.90;;;;;;5054877;28;20083;-65
2021/05/17 07:58:07;;;;;;;4.05;0.90;;;12.90;99.90;;;;;;5054867;28;20405;-65
2021/05/17 08:00:33;;;;;;;2.05;0.45;;;12.90;99.90;;;;;;5055043;28;20025;-65
2021/05/17 08:03:00;;;;;;;2.78;0.60;;;12.90;99.90;;;;;;5053554;28;20032;-62
2021/05/17 08:05:25;;;;;;;3.08;0.60;;;12.90;99.90;;;;;;5085394;28;20028;-66
2021/05/17 08:07:51;;;;;;;1.58;0.40;;;13.00;99.90;;;;;;5095019;28;20393;-72
2021/05/17 08:10:17;;;;;;;3.88;0.70;;;13.30;99.90;;;;;;5093760;28;20513;-71
2021/05/17 08:12:43;;;;;;;1.42;0.45;;;13.30;99.90;;;;;;5094688;28;20513;-66
2021/05/17 08:15:12;;;;;;;4.35;0.65;;;13.50;99.90;;;;;;5093299;28;20045;-66
2021/05/17 08:17:39;;;;;;;1.60;0.50;;;13.50;99.90;;;;;;5094883;28;20081;-66
2021/05/17 08:20:07;;;;;;;3.33;0.93;;;13.50;99.90;;;;;;5094195;28;20033;-66
2021/05/17 08:22:34;;;;;;;1.90;0.50;;;13.60;99.90;;;;;;5094754;28;20137;-66
2021/05/17 08:25:03;;;;;;;3.50;0.32;;;13.70;99.90;;;;;;5093370;28;20479;-66
2021/05/17 08:27:29;;;;;;;1.55;0.40;;;13.60;99.90;;;;;;5094502;28;20449;-67
2021/05/17 08:29:55;;;;;;;1.02;0.32;;;13.40;99.90;;;;;;5094620;28;20051;-66
2021/05/17 08:32:21;;;;;;;0.68;0.20;;;13.30;99.90;;;;;;5094874;28;20024;-66
2021/05/17 08:34:47;;;;;;;1.85;0.77;;;13.40;99.90;;;;;;5085637;28;20496;-66
2021/05/17 08:37:12;;;;;;;2.63;0.50;;;13.20;99.90;;;;;;5073443;28;20541;-66
2021/05/17 08:39:40;;;;;;;1.23;0.40;;;13.30;99.90;;;;;;5074113;28;20024;-66
2021/05/17 08:42:06;;;;;;;0.60;0.20;;;13.20;99.90;;;;;;5072848;28;20067;-66
2021/05/17 08:44:35;;;;;;;0.90;0.20;;;13.20;99.90;;;;;;5074020;28;20553;-66
2021/05/17 08:47:02;;;;;;;2.33;0.43;;;13.20;99.90;;;;;;5073833;28;20032;-65
2021/05/17 08:49:28;;;;;;;7.95;0.50;;;13.30;99.90;;;;;;5072730;28;20022;-66
2021/05/17 08:51:54;;;;;;;0.68;0.30;;;13.30;99.90;;;;;;5073580;28;20397;-66
2021/05/17 08:54:20;;;;;;;1.50;0.40;;;13.40;99.90;;;;;;5074019;28;20020;-67
2021/05/17 08:56:47;;;;;;;2.10;0.32;;;13.40;99.90;;;;;;5072495;28;20037;-66
2021/05/17 08:59:16;;;;;;;1.60;0.38;;;13.40;99.90;;;;;;5073832;28;20512;-66
2021/05/17 09:01:43;;;;;;;1.05;0.13;;;13.60;99.90;;;;;;5073269;28;20384;-66
2021/05/17 09:04:16;;;;;;;1.10;0.20;;;13.40;99.90;;;;;;5077238;28;20028;-65
2021/05/17 09:06:54;;;;;;;2.80;0.52;;;13.40;99.90;;;;;;5093882;28;20027;-66
2021/05/17 09:09:31;;;;;;;1.00;0.40;;;13.40;99.90;;;;;;5093672;28;20050;-66
2021/05/17 09:12:02;;;;;;;0.65;0.30;;;13.60;99.90;;;;;;5093549;28;20039;-66
2021/05/17 09:14:32;;;;;;;1.13;0.40;;;13.70;99.90;;;;;;5093726;28;20032;-66
2021/05/17 09:17:07;;;;;;;2.53;0.50;;;13.70;99.90;;;;;;5093279;28;20484;-66
2021/05/17 09:19:34;;;;;;;1.20;0.40;;;13.70;99.90;;;;;;5093351;28;20047;-65
2021/05/17 09:22:10;;;;;;;1.00;0.40;;;13.70;99.90;;;;;;5093526;28;20054;-67
2021/05/17 09:24:54;;;;;;;1.20;0.55;;;13.80;99.90;;;;;;5093609;28;20446;-68
2021/05/17 09:27:27;;;;;;;1.42;0.50;;;13.80;99.90;;;;;;5093738;28;20023;-67
2021/05/17 09:30:01;;;;;;;2.20;0.40;;;13.80;99.90;;;;;;5093743;28;20027;-66
2021/05/17 09:32:34;;;;;;;1.08;0.40;;;13.70;99.90;;;;;;5093645;28;20035;-66
2021/05/17 09:35:03;;;;;;;0.80;0.50;;;13.80;99.90;;;;;;5082744;28;20064;-68
2021/05/17 09:37:46;;;;;;;3.03;0.45;;;13.90;99.90;;;;;;5073161;28;20040;-66
2021/05/17 09:40:28;;;;;;;2.22;0.60;;;14.10;99.90;;;;;;5072092;28;20085;-64
2021/05/17 09:43:07;;;;;;;2.30;0.65;;;13.90;99.90;;;;;;5072529;28;20579;-64
2021/05/17 09:45:36;;;;;;;2.53;0.45;;;13.90;99.90;;;;;;5071851;28;20028;-65
2021/05/17 09:48:21;;;;;;;2.15;0.68;;;13.70;99.90;;;;;;5083798;28;20427;-66
2021/05/17 09:51:07;;;;;;;1.75;0.40;;;13.60;99.90;;;;;;5092830;28;20047;-66
2021/05/17 09:53:41;;;;;;;1.65;0.77;;;13.70;99.90;;;;;;5092490;28;20019;-65
2021/05/17 09:56:20;;;;;;;0.68;0.30;;;13.90;99.90;;;;;;5091815;28;20060;-65
2021/05/17 09:58:57;;;;;;;2.72;0.60;;;14.20;99.90;;;;;;5093090;28;20028;-67
2021/05/17 10:01:29;;;;;;;0.40;0.40;;;14.50;99.90;;;;;;5093156;28;20119;-64
2021/05/17 10:04:03;;;;;;;1.13;0.50;;;14.50;99.90;;;;;;5092249;28;20034;-65
2021/05/17 10:06:29;;;;;;;2.33;0.63;;;14.40;99.90;;;;;;5081047;28;20060;-64
2021/05/17 10:08:57;;;;;;;1.15;0.60;;;14.70;99.90;;;;;;5072246;28;20129;-64
2021/05/17 10:11:26;;;;;;;1.38;0.70;;;14.70;99.90;;;;;;5072482;28;20396;-65
2021/05/17 10:13:53;;;;;;;2.20;0.73;;;14.80;99.90;;;;;;5072468;28;20050;-65
2021/05/17 10:16:20;;;;;;;3.25;0.45;;;14.90;99.90;;;;;;5072298;28;20043;-64
2021/05/17 10:18:47;;;;;;;3.13;0.60;;;15.10;99.90;;;;;;5072279;28;20044;-64
2021/05/17 10:21:25;;;;;;;2.08;0.55;;;15.50;99.90;;;;;;5072570;28;20074;-65
2021/05/17 10:23:51;;;;;;;0.80;0.32;;;15.30;99.90;;;;;;5071240;28;20054;-63
2021/05/17 10:26:25;;;;;;;1.60;0.60;;;15.20;99.90;;;;;;5071345;28;20097;-65
2021/05/17 10:28:59;;;;;;;2.30;0.47;;;15.20;99.90;;;;;;5054522;28;20035;-66
2021/05/17 10:31:26;;;;;;;3.42;0.47;;;14.80;99.90;;;;;;5071294;28;20039;-65
2021/05/17 10:34:05;;;;;;;1.33;0.57;;;15.20;99.90;;;;;;5071980;28;20029;-65
2021/05/17 10:36:46;;;;;;;1.95;0.60;;;15.60;99.90;;;;;;5081607;28;20035;-65
2021/05/17 10:39:13;;;;;;;;;;;15.90;99.90;;;;;;5092963;28;20039;-65
2021/05/17 10:48:34;;;;;;;4.47;0.65;;;15.30;99.90;;;;;;5092231;28;19919;-65
2021/05/17 10:51:12;;;;;;;2.58;0.63;;;15.30;99.90;;;;;;5091072;28;20089;-64
2021/05/17 10:53:50;;;;;;;2.25;0.75;;;15.20;99.90;;;;;;5091157;28;20035;-65
2021/05/17 10:56:39;;;;;;;2.88;0.68;;;15.10;99.90;;;;;;5092198;28;20036;-65
2021/05/17 11:01:58;;;;;;;1.67;0.50;;;15.00;99.90;;;;;;5096340;28;20040;-64
2021/05/17 11:04:30;;;;;;;0.63;0.30;;;15.10;99.90;;;;;;5096613;28;20031;-64
2021/05/17 11:07:52;;;;;;;2.63;0.50;;;15.10;99.90;;;;;;5096372;28;20416;-65
2021/05/17 11:10:35;;;;;;;3.83;0.60;;;15.00;99.90;;;;;;5092515;28;20036;-64
2021/05/17 11:13:17;;;;;;;2.42;0.60;;;14.90;99.90;;;;;;5077790;28;20089;-64
2021/05/17 11:15:59;;;;;;;2.72;0.73;;;14.80;99.90;;;;;;5095855;28;20431;-64
2021/05/17 11:18:26;;;;;;;1.33;0.55;;;14.50;99.90;;;;;;5094891;28;20089;-64
2021/05/17 11:20:55;;;;;;;4.90;1.05;;;14.30;99.90;;;;;;5095812;28;20039;-64
2021/05/17 11:23:27;;;;;;;3.25;0.80;;;14.20;99.90;;;;;;5096188;28;20085;-65
2021/05/17 11:26:09;;;;;;;4.30;1.08;;;14.30;99.90;;;;;;5095630;28;20043;-66
2021/05/17 11:28:35;;;;;;;3.03;0.93;;;14.30;99.90;;;;;;5095872;28;20036;-66
2021/05/17 11:34:04;;;;;;;4.90;1.05;;;13.70;99.90;;;;;;5094226;28;20373;-64
2021/05/17 11:36:34;;;;;;;6.95;1.20;;;12.90;99.90;;;;;;5084552;28;20040;-69
2021/05/17 11:39:15;;;;;;;3.90;0.90;;;12.30;99.90;;;;;;5074217;28;20042;-65
2021/05/17 11:41:58;;;;;;;6.45;0.95;;;12.00;99.90;;;;;;5077966;28;20040;-65
2021/05/17 11:44:58;;;;;;;1.55;0.68;;;11.90;99.90;;;;;;5075133;28;20082;-64
2021/05/17 11:47:31;;;;;;;3.45;1.02;;;12.10;99.90;;;;;;5057174;28;20381;-64
2021/05/17 11:49:58;;;;;;;3.20;0.90;;;12.50;99.90;;;;;;5075318;28;20469;-65
2021/05/17 11:52:28;;;;;;;6.63;0.82;;;12.80;99.90;;;;;;5075207;28;20110;-65
2021/05/17 11:55:12;;;;;;;3.20;0.85;;;12.90;99.90;;;;;;5075125;28;20465;-64
2021/05/17 11:57:41;;;;;;;2.78;0.70;;;13.10;99.90;;;;;;5075348;28;20131;-65
2021/05/17 12:00:21;;;;;;;9.20;1.23;;;13.40;99.90;;;;;;5075132;28;20028;-64
2021/05/17 12:02:53;;;;;;;1.65;0.35;;;13.90;99.90;;;;;;5074946;28;20044;-64
2021/05/17 12:05:22;;;;;;;1.33;0.50;;;14.10;99.90;;;;;;5075134;28;20037;-64
2021/05/17 12:07:53;;;;;;;2.75;0.40;;;14.30;99.90;;;;;;5095004;28;20117;-65
2021/05/17 12:10:21;;;;;;;1.60;0.32;;;14.40;99.90;;;;;;5094042;28;20487;-64
2021/05/17 12:12:52;;;;;;;1.50;0.40;;;14.60;99.90;;;;;;5092762;28;20068;-65
2021/05/17 12:15:20;;;;;;;2.40;0.73;;;14.70;99.90;;;;;;5094964;28;20038;-65
2021/05/17 12:17:46;;;;;;;0.90;0.30;;;15.00;99.90;;;;;;5094752;28;20411;-65
2021/05/17 12:20:15;;;;;;;0.88;0.20;;;15.00;99.90;;;;;;5094995;28;20035;-64
2021/05/17 12:22:44;;;;;;;3.35;0.90;;;15.10;99.90;;;;;;5094817;28;20032;-65
2021/05/17 12:25:14;;;;;;;4.32;0.90;;;15.00;99.90;;;;;;5090659;28;20039;-65
2021/05/17 12:27:41;;;;;;;1.92;0.30;;;15.10;99.90;;;;;;5067610;28;20044;-64
2021/05/17 12:30:15;;;;;;;1.48;0.30;;;15.40;99.90;;;;;;5093270;28;20020;-55
2021/05/17 12:32:50;;;;;;;2.65;0.28;;;15.70;99.90;;;;;;5092416;28;20032;-54
2021/05/17 12:35:33;;;;;;;3.20;0.40;;;15.90;99.90;;;;;;5094525;28;20086;-58
2021/05/17 12:38:14;;;;;;;1.98;0.38;;;15.80;99.90;;;;;;5054256;28;20033;-61
2021/05/17 12:40:50;;;;;;;2.30;0.30;;;15.80;99.90;;;;;;5054061;28;20056;-56
2021/05/17 12:43:21;;;;;;;1.17;0.45;;;15.70;99.90;;;;;;5053967;28;20036;-55
2021/05/17 12:45:47;;;;;;;;;;;15.90;99.90;;;;;;5054741;28;20044;-52
2021/05/17 12:48:32;;;;;;;0.80;0.30;;;15.90;99.90;;;;;;5054248;28;19912;-55
2021/05/17 12:51:16;;;;;;;2.28;0.57;;;16.00;99.90;;;;;;5054048;28;20029;-54
2021/05/17 12:53:42;;;;;;;0.90;0.30;;;15.80;99.90;;;;;;5054227;28;20036;-55
2021/05/17 12:56:08;;;;;;;2.72;0.38;;;15.90;99.90;;;;;;5053608;28;20048;-55
2021/05/17 12:58:41;;;;;;;2.25;0.57;;;15.90;99.90;;;;;;5053739;28;20029;-54
2021/05/17 13:01:14;;;;;;;1.65;0.30;;;15.90;99.90;;;;;;5053770;28;20033;-54
2021/05/17 13:03:46;;;;;;;0.98;0.28;;;15.90;99.90;;;;;;5053929;28;20029;-57
2021/05/17 13:06:26;;;;;;;1.15;0.20;;;16.10;99.90;;;;;;5060749;28;20036;-56
2021/05/17 13:09:05;;;;;;;1.45;0.40;;;16.40;99.90;;;;;;5072769;28;20099;-55
2021/05/17 13:11:41;;;;;;;0.82;0.57;;;16.30;99.90;;;;;;5072338;28;20054;-56
2021/05/17 13:14:21;;;;;;;1.45;0.30;;;16.50;99.90;;;;;;5073185;28;20502;-55
2021/05/17 13:16:50;;;;;;;0.75;0.40;;;16.50;99.90;;;;;;5072017;28;20170;-62
2021/05/17 13:33:23;;;;;;;4.05;1.02;;;16.50;99.90;;;;;;5074351;28;20055;-72
2021/05/17 13:36:03;;;;;;;1.30;0.75;;;16.10;99.90;;;;;;5060953;28;20544;-54
2021/05/17 13:38:33;;;;;;;0.73;0.30;;;15.90;99.90;;;;;;5093721;28;20435;-72
2021/05/17 13:41:00;;;;;;;0.43;0.25;;;15.60;99.90;;;;;;5093163;28;20046;-58
2021/05/17 13:43:27;;;;;;;3.03;0.50;;;15.20;99.90;;;;;;5093152;28;20365;-67
2021/05/17 13:45:53;;;;;;;3.28;0.63;;;14.90;99.90;;;;;;5093357;28;20039;-69
2021/05/17 13:48:19;;;;;;;0.95;0.45;;;14.90;99.90;;;;;;5091864;28;20067;-69
2021/05/17 13:50:44;;;;;;;3.83;1.02;;;14.90;99.90;;;;;;5093139;28;20056;-70